sensor_id;sensor_type;location;lat;lon;timestamp;pressure;altitude;pressure_sealevel;temperature;humidity
68456;BME280;55437;55.046;38.838;2023-04-28T00:01:21;99522.88;;;12.29;65.42
68456;BME280;55437;55.046;38.838;2023-04-28T00:03:47;99532.28;;;12.30;65.27
68456;BME280;55437;55.046;38.838;2023-04-28T00:06:13;99537.50;;;12.29;65.08
68456;BME280;55437;55.046;38.838;2023-04-28T00:08:39;99529.91;;;12.25;65.14
68456;BME280;55437;55.046;38.838;2023-04-28T00:11:11;99526.69;;;12.20;65.59
68456;BME280;55437;55.046;38.838;2023-04-28T00:13:38;99527.72;;;12.16;65.62
68456;BME280;55437;55.046;38.838;2023-04-28T00:16:04;99526.19;;;12.12;65.29
68456;BME280;55437;55.046;38.838;2023-04-28T00:18:30;99519.47;;;12.08;65.51
68456;BME280;55437;55.046;38.838;2023-04-28T00:20:58;99513.50;;;12.08;65.37
68456;BME280;55437;55.046;38.838;2023-04-28T00:23:24;99510.19;;;12.06;66.12
68456;BME280;55437;55.046;38.838;2023-04-28T00:25:54;99515.31;;;12.06;65.78
68456;BME280;55437;55.046;38.838;2023-04-28T00:28:20;99510.31;;;12.03;65.58
68456;BME280;55437;55.046;38.838;2023-04-28T00:30:46;99514.03;;;11.96;65.42
68456;BME280;55437;55.046;38.838;2023-04-28T00:33:12;99505.03;;;11.85;65.88
68456;BME280;55437;55.046;38.838;2023-04-28T00:36:03;99503.69;;;11.77;66.21
68456;BME280;55437;55.046;38.838;2023-04-28T00:38:30;99509.81;;;11.73;66.05
68456;BME280;55437;55.046;38.838;2023-04-28T00:40:56;99509.19;;;11.68;66.24
68456;BME280;55437;55.046;38.838;2023-04-28T00:43:22;99504.44;;;11.59;66.55
68456;BME280;55437;55.046;38.838;2023-04-28T00:45:49;99506.59;;;11.47;66.46
68456;BME280;55437;55.046;38.838;2023-04-28T00:48:15;99507.19;;;11.34;67.09
68456;BME280;55437;55.046;38.838;2023-04-28T00:50:43;99507.47;;;11.26;67.17
68456;BME280;55437;55.046;38.838;2023-04-28T00:53:10;99510.09;;;11.25;67.80
68456;BME280;55437;55.046;38.838;2023-04-28T00:55:37;99504.00;;;11.27;67.82
68456;BME280;55437;55.046;38.838;2023-04-28T00:58:04;99506.44;;;11.30;67.58
68456;BME280;55437;55.046;38.838;2023-04-28T01:00:31;99501.31;;;11.30;67.69
68456;BME280;55437;55.046;38.838;2023-04-28T01:02:57;99503.09;;;11.28;67.55
68456;BME280;55437;55.046;38.838;2023-04-28T01:05:25;99503.09;;;11.28;67.37
68456;BME280;55437;55.046;38.838;2023-04-28T01:07:51;99503.22;;;11.25;67.73
68456;BME280;55437;55.046;38.838;2023-04-28T01:13:29;99498.97;;;11.24;68.04
68456;BME280;55437;55.046;38.838;2023-04-28T01:15:55;99505.94;;;11.22;67.55
68456;BME280;55437;55.046;38.838;2023-04-28T01:21:43;99516.56;;;11.13;67.40
68456;BME280;55437;55.046;38.838;2023-04-28T01:24:20;99513.28;;;11.09;67.68
68456;BME280;55437;55.046;38.838;2023-04-28T01:29:30;99506.47;;;11.08;68.04
68456;BME280;55437;55.046;38.838;2023-04-28T01:31:56;99509.69;;;11.13;67.97
68456;BME280;55437;55.046;38.838;2023-04-28T01:34:22;99507.78;;;11.18;68.18
68456;BME280;55437;55.046;38.838;2023-04-28T01:36:48;99517.06;;;11.23;68.00
68456;BME280;55437;55.046;38.838;2023-04-28T01:39:14;99515.28;;;11.23;67.81
68456;BME280;55437;55.046;38.838;2023-04-28T01:45:01;99518.22;;;11.14;67.91
68456;BME280;55437;55.046;38.838;2023-04-28T01:47:30;99514.25;;;11.07;67.99
68456;BME280;55437;55.046;38.838;2023-04-28T01:49:56;99514.34;;;11.04;67.83
68456;BME280;55437;55.046;38.838;2023-04-28T01:52:22;99508.38;;;11.03;68.01
68456;BME280;55437;55.046;38.838;2023-04-28T01:55:07;99511.13;;;10.99;68.00
68456;BME280;55437;55.046;38.838;2023-04-28T01:57:34;99509.56;;;10.95;68.37
68456;BME280;55437;55.046;38.838;2023-04-28T02:00:02;99516.28;;;10.99;68.29
68456;BME280;55437;55.046;38.838;2023-04-28T02:05:16;99511.13;;;10.99;68.81
68456;BME280;55437;55.046;38.838;2023-04-28T02:10:26;99532.34;;;11.68;67.44
68456;BME280;55437;55.046;38.838;2023-04-28T02:13:29;99534.81;;;12.11;66.52
68456;BME280;55437;55.046;38.838;2023-04-28T02:16:01;99540.56;;;12.37;66.02
68456;BME280;55437;55.046;38.838;2023-04-28T02:21:49;99547.63;;;12.89;64.04
68456;BME280;55437;55.046;38.838;2023-04-28T02:24:16;99541.75;;;13.05;63.78
68456;BME280;55437;55.046;38.838;2023-04-28T02:29:47;99546.06;;;13.76;62.04
68456;BME280;55437;55.046;38.838;2023-04-28T02:32:13;99558.03;;;14.12;61.22
68456;BME280;55437;55.046;38.838;2023-04-28T02:34:41;99552.63;;;14.16;61.20
68456;BME280;55437;55.046;38.838;2023-04-28T02:37:06;99555.75;;;14.56;60.30
68456;BME280;55437;55.046;38.838;2023-04-28T02:39:32;99556.53;;;14.73;59.78
68456;BME280;55437;55.046;38.838;2023-04-28T02:41:58;99563.81;;;14.50;60.07
68456;BME280;55437;55.046;38.838;2023-04-28T02:44:24;99566.00;;;14.24;60.73
68456;BME280;55437;55.046;38.838;2023-04-28T02:46:50;99563.56;;;14.04;61.06
68456;BME280;55437;55.046;38.838;2023-04-28T02:49:34;99566.09;;;13.88;61.95
68456;BME280;55437;55.046;38.838;2023-04-28T02:52:00;99558.88;;;13.78;61.59
68456;BME280;55437;55.046;38.838;2023-04-28T02:54:26;99560.25;;;13.67;62.06
68456;BME280;55437;55.046;38.838;2023-04-28T02:56:53;99572.47;;;13.64;62.39
68456;BME280;55437;55.046;38.838;2023-04-28T03:02:04;99568.97;;;13.48;62.37
68456;BME280;55437;55.046;38.838;2023-04-28T03:04:30;99565.91;;;13.40;62.96
68456;BME280;55437;55.046;38.838;2023-04-28T03:06:56;99574.91;;;13.31;63.09
68456;BME280;55437;55.046;38.838;2023-04-28T03:09:40;99578.38;;;13.30;63.29
68456;BME280;55437;55.046;38.838;2023-04-28T03:12:06;99573.47;;;13.25;63.36
68456;BME280;55437;55.046;38.838;2023-04-28T03:14:50;99575.28;;;13.23;63.41
68456;BME280;55437;55.046;38.838;2023-04-28T03:17:16;99585.44;;;13.26;63.46
68456;BME280;55437;55.046;38.838;2023-04-28T03:20:01;99578.94;;;13.37;63.43
68456;BME280;55437;55.046;38.838;2023-04-28T03:22:30;99580.88;;;13.50;63.21
68456;BME280;55437;55.046;38.838;2023-04-28T03:24:57;99584.22;;;13.52;63.21
68456;BME280;55437;55.046;38.838;2023-04-28T03:27:24;99588.31;;;13.56;63.30
68456;BME280;55437;55.046;38.838;2023-04-28T03:29:52;99589.84;;;13.60;63.46
68456;BME280;55437;55.046;38.838;2023-04-28T03:32:18;99585.28;;;13.65;63.38
68456;BME280;55437;55.046;38.838;2023-04-28T03:34:44;99595.25;;;13.73;63.38
68456;BME280;55437;55.046;38.838;2023-04-28T03:37:10;99594.03;;;13.80;63.29
68456;BME280;55437;55.046;38.838;2023-04-28T03:39:54;99592.59;;;13.92;62.96
68456;BME280;55437;55.046;38.838;2023-04-28T03:42:20;99596.09;;;14.08;62.82
68456;BME280;55437;55.046;38.838;2023-04-28T03:45:04;99587.09;;;14.15;62.63
68456;BME280;55437;55.046;38.838;2023-04-28T03:47:32;99591.06;;;14.22;62.46
68456;BME280;55437;55.046;38.838;2023-04-28T03:49:58;99594.41;;;14.24;62.73
68456;BME280;55437;55.046;38.838;2023-04-28T03:52:24;99583.13;;;14.25;62.55
68456;BME280;55437;55.046;38.838;2023-04-28T03:54:50;99594.06;;;14.30;62.49
68456;BME280;55437;55.046;38.838;2023-04-28T03:57:18;99585.28;;;14.34;62.59
68456;BME280;55437;55.046;38.838;2023-04-28T03:59:43;99584.97;;;14.40;62.58
68456;BME280;55437;55.046;38.838;2023-04-28T04:02:09;99583.56;;;14.51;62.55
68456;BME280;55437;55.046;38.838;2023-04-28T04:04:35;99587.00;;;14.51;62.63
68456;BME280;55437;55.046;38.838;2023-04-28T04:07:02;99586.78;;;14.56;62.62
68456;BME280;55437;55.046;38.838;2023-04-28T04:09:28;99587.66;;;14.72;62.58
68456;BME280;55437;55.046;38.838;2023-04-28T04:11:54;99585.75;;;14.91;62.21
68456;BME280;55437;55.046;38.838;2023-04-28T04:14:20;99586.66;;;15.37;61.25
68456;BME280;55437;55.046;38.838;2023-04-28T04:16:46;99587.81;;;15.63;60.91
68456;BME280;55437;55.046;38.838;2023-04-28T04:19:13;99585.09;;;15.80;60.57
68456;BME280;55437;55.046;38.838;2023-04-28T04:21:43;99577.34;;;15.95;60.49
68456;BME280;55437;55.046;38.838;2023-04-28T04:24:09;99583.47;;;16.08;60.30
68456;BME280;55437;55.046;38.838;2023-04-28T04:26:36;99578.50;;;16.19;59.82
68456;BME280;55437;55.046;38.838;2023-04-28T04:29:14;99579.09;;;16.24;59.79
68456;BME280;55437;55.046;38.838;2023-04-28T04:31:40;99581.84;;;16.21;59.99
68456;BME280;55437;55.046;38.838;2023-04-28T04:34:06;99580.50;;;16.30;59.79
68456;BME280;55437;55.046;38.838;2023-04-28T04:36:32;99581.13;;;16.47;59.61
68456;BME280;55437;55.046;38.838;2023-04-28T04:38:58;99573.84;;;16.54;59.73
68456;BME280;55437;55.046;38.838;2023-04-28T04:41:25;99569.38;;;16.56;59.56
68456;BME280;55437;55.046;38.838;2023-04-28T04:44:03;99572.78;;;16.56;59.81
68456;BME280;55437;55.046;38.838;2023-04-28T04:46:35;99581.88;;;16.49;59.82
68456;BME280;55437;55.046;38.838;2023-04-28T04:49:01;99589.75;;;16.48;59.98
68456;BME280;55437;55.046;38.838;2023-04-28T04:51:27;99589.16;;;16.43;60.14
68456;BME280;55437;55.046;38.838;2023-04-28T04:53:54;99601.41;;;16.41;60.23
68456;BME280;55437;55.046;38.838;2023-04-28T04:56:20;99595.75;;;16.34;60.36
68456;BME280;55437;55.046;38.838;2023-04-28T04:58:47;99601.84;;;16.33;60.57
68456;BME280;55437;55.046;38.838;2023-04-28T05:01:33;99592.41;;;16.32;60.62
68456;BME280;55437;55.046;38.838;2023-04-28T05:03:58;99591.78;;;16.29;60.86
68456;BME280;55437;55.046;38.838;2023-04-28T05:06:24;99590.38;;;16.37;61.04
68456;BME280;55437;55.046;38.838;2023-04-28T05:08:50;99578.44;;;16.35;61.04
68456;BME280;55437;55.046;38.838;2023-04-28T05:11:35;99571.31;;;16.24;61.08
68456;BME280;55437;55.046;38.838;2023-04-28T05:14:19;99583.06;;;16.15;61.10
68456;BME280;55437;55.046;38.838;2023-04-28T05:19:33;99588.38;;;15.98;61.73
68456;BME280;55437;55.046;38.838;2023-04-28T05:22:00;99591.78;;;15.99;61.63
68456;BME280;55437;55.046;38.838;2023-04-28T05:24:26;99603.56;;;16.04;61.67
68456;BME280;55437;55.046;38.838;2023-04-28T05:26:52;99600.16;;;16.04;62.10
68456;BME280;55437;55.046;38.838;2023-04-28T05:29:20;99606.25;;;16.03;62.23
68456;BME280;55437;55.046;38.838;2023-04-28T05:31:46;99612.44;;;16.00;62.55
68456;BME280;55437;55.046;38.838;2023-04-28T05:34:13;99615.94;;;15.99;62.78
68456;BME280;55437;55.046;38.838;2023-04-28T05:36:38;99615.63;;;15.90;63.28
68456;BME280;55437;55.046;38.838;2023-04-28T05:39:07;99622.19;;;15.81;63.40
68456;BME280;55437;55.046;38.838;2023-04-28T05:41:34;99618.19;;;15.75;63.91
68456;BME280;55437;55.046;38.838;2023-04-28T05:44:04;99617.41;;;15.73;63.98
68456;BME280;55437;55.046;38.838;2023-04-28T05:46:30;99615.41;;;15.78;63.82
68456;BME280;55437;55.046;38.838;2023-04-28T05:48:58;99610.78;;;15.69;64.01
68456;BME280;55437;55.046;38.838;2023-04-28T05:51:25;99612.66;;;15.81;64.03
68456;BME280;55437;55.046;38.838;2023-04-28T05:53:52;99604.81;;;15.97;63.59
68456;BME280;55437;55.046;38.838;2023-04-28T05:56:19;99616.00;;;16.28;63.06
68456;BME280;55437;55.046;38.838;2023-04-28T05:58:46;99606.91;;;16.65;62.18
68456;BME280;55437;55.046;38.838;2023-04-28T06:01:14;99616.13;;;17.11;60.94
68456;BME280;55437;55.046;38.838;2023-04-28T06:03:40;99611.81;;;18.18;58.80
68456;BME280;55437;55.046;38.838;2023-04-28T06:06:07;99614.00;;;19.00;56.96
68456;BME280;55437;55.046;38.838;2023-04-28T06:08:33;99611.13;;;19.76;55.19
68456;BME280;55437;55.046;38.838;2023-04-28T06:11:02;99606.03;;;20.09;53.86
68456;BME280;55437;55.046;38.838;2023-04-28T06:13:28;99612.00;;;20.34;52.80
68456;BME280;55437;55.046;38.838;2023-04-28T06:15:55;99604.88;;;20.13;52.79
68456;BME280;55437;55.046;38.838;2023-04-28T06:18:22;99607.28;;;19.93;52.95
68456;BME280;55437;55.046;38.838;2023-04-28T06:20:49;99601.44;;;19.78;52.92
68456;BME280;55437;55.046;38.838;2023-04-28T06:23:15;99593.47;;;20.03;52.37
68456;BME280;55437;55.046;38.838;2023-04-28T06:25:44;99594.97;;;20.41;51.56
68456;BME280;55437;55.046;38.838;2023-04-28T06:28:10;99596.94;;;21.27;50.39
68456;BME280;55437;55.046;38.838;2023-04-28T06:30:37;99602.94;;;21.61;49.33
68456;BME280;55437;55.046;38.838;2023-04-28T06:33:03;99602.94;;;21.61;48.82
68456;BME280;55437;55.046;38.838;2023-04-28T06:35:29;99603.56;;;21.42;49.00
68456;BME280;55437;55.046;38.838;2023-04-28T06:37:55;99611.38;;;20.88;49.73
68456;BME280;55437;55.046;38.838;2023-04-28T06:40:22;99604.94;;;20.69;50.05
68456;BME280;55437;55.046;38.838;2023-04-28T06:42:54;99607.31;;;20.39;50.27
68456;BME280;55437;55.046;38.838;2023-04-28T06:45:25;99607.69;;;20.10;51.09
68456;BME280;55437;55.046;38.838;2023-04-28T06:47:52;99611.22;;;19.98;51.42
68456;BME280;55437;55.046;38.838;2023-04-28T06:50:21;99611.88;;;19.78;51.61
68456;BME280;55437;55.046;38.838;2023-04-28T06:52:47;99615.75;;;19.49;52.41
68456;BME280;55437;55.046;38.838;2023-04-28T06:55:14;99623.56;;;19.36;52.55
68456;BME280;55437;55.046;38.838;2023-04-28T06:57:42;99624.03;;;19.30;52.61
68456;BME280;55437;55.046;38.838;2023-04-28T07:00:10;99625.97;;;19.39;52.32
68456;BME280;55437;55.046;38.838;2023-04-28T07:02:36;99622.53;;;19.38;52.49
68456;BME280;55437;55.046;38.838;2023-04-28T07:05:02;99626.34;;;19.46;52.05
68456;BME280;55437;55.046;38.838;2023-04-28T07:07:30;99625.84;;;19.53;51.68
68456;BME280;55437;55.046;38.838;2023-04-28T07:09:55;99624.63;;;19.81;51.44
68456;BME280;55437;55.046;38.838;2023-04-28T07:12:21;99620.34;;;20.39;50.01
68456;BME280;55437;55.046;38.838;2023-04-28T07:14:48;99609.81;;;20.52;50.03
68456;BME280;55437;55.046;38.838;2023-04-28T07:17:15;99628.09;;;20.74;49.59
68456;BME280;55437;55.046;38.838;2023-04-28T07:19:41;99626.41;;;21.29;48.79
68456;BME280;55437;55.046;38.838;2023-04-28T07:22:08;99626.88;;;21.66;47.55
68456;BME280;55437;55.046;38.838;2023-04-28T07:24:34;99624.63;;;22.04;46.99
68456;BME280;55437;55.046;38.838;2023-04-28T07:27:00;99634.28;;;22.55;45.83
68456;BME280;55437;55.046;38.838;2023-04-28T07:29:26;99614.69;;;22.70;45.54
68456;BME280;55437;55.046;38.838;2023-04-28T07:32:01;99605.94;;;22.09;46.67
68456;BME280;55437;55.046;38.838;2023-04-28T07:34:29;99611.94;;;21.88;46.92
68456;BME280;55437;55.046;38.838;2023-04-28T07:37:14;99611.50;;;21.51;47.37
68456;BME280;55437;55.046;38.838;2023-04-28T07:39:40;99607.28;;;21.28;47.90
68456;BME280;55437;55.046;38.838;2023-04-28T07:42:06;99607.78;;;21.11;48.17
68456;BME280;55437;55.046;38.838;2023-04-28T07:44:32;99616.69;;;20.97;48.68
68456;BME280;55437;55.046;38.838;2023-04-28T07:46:59;99617.66;;;20.85;48.86
68456;BME280;55437;55.046;38.838;2023-04-28T07:49:28;99612.78;;;20.69;49.40
68456;BME280;55437;55.046;38.838;2023-04-28T07:51:54;99617.28;;;20.67;48.90
68456;BME280;55437;55.046;38.838;2023-04-28T07:54:21;99616.56;;;20.54;48.97
68456;BME280;55437;55.046;38.838;2023-04-28T07:56:47;99607.44;;;20.60;48.73
68456;BME280;55437;55.046;38.838;2023-04-28T07:59:13;99611.81;;;20.59;48.86
68456;BME280;55437;55.046;38.838;2023-04-28T08:01:39;99604.84;;;20.48;49.04
68456;BME280;55437;55.046;38.838;2023-04-28T08:04:05;99604.94;;;20.58;48.93
68456;BME280;55437;55.046;38.838;2023-04-28T08:06:31;99603.28;;;20.79;48.30
68456;BME280;55437;55.046;38.838;2023-04-28T08:08:59;99600.78;;;20.89;48.06
68456;BME280;55437;55.046;38.838;2023-04-28T08:11:27;99613.25;;;20.97;47.97
68456;BME280;55437;55.046;38.838;2023-04-28T08:13:52;99595.94;;;20.73;48.39
68456;BME280;55437;55.046;38.838;2023-04-28T08:16:19;99598.31;;;20.76;48.62
68456;BME280;55437;55.046;38.838;2023-04-28T08:18:44;99605.91;;;21.56;47.39
68456;BME280;55437;55.046;38.838;2023-04-28T08:21:10;99605.31;;;22.47;45.70
68456;BME280;55437;55.046;38.838;2023-04-28T08:23:36;99591.09;;;23.01;44.53
68456;BME280;55437;55.046;38.838;2023-04-28T08:26:03;99605.06;;;23.20;44.00
68456;BME280;55437;55.046;38.838;2023-04-28T08:28:29;99592.97;;;22.79;44.64
68456;BME280;55437;55.046;38.838;2023-04-28T08:30:54;99581.59;;;23.09;44.10
68456;BME280;55437;55.046;38.838;2023-04-28T08:33:20;99587.53;;;23.11;44.17
68456;BME280;55437;55.046;38.838;2023-04-28T08:35:48;99578.34;;;22.77;44.39
68456;BME280;55437;55.046;38.838;2023-04-28T08:38:14;99586.75;;;22.50;44.73
68456;BME280;55437;55.046;38.838;2023-04-28T08:40:42;99581.22;;;22.22;45.28
68456;BME280;55437;55.046;38.838;2023-04-28T08:43:08;99581.50;;;21.99;46.08
68456;BME280;55437;55.046;38.838;2023-04-28T08:45:40;99594.16;;;21.82;46.42
68456;BME280;55437;55.046;38.838;2023-04-28T08:48:17;99585.59;;;21.60;46.89
68456;BME280;55437;55.046;38.838;2023-04-28T08:50:53;99579.59;;;21.48;46.88
68456;BME280;55437;55.046;38.838;2023-04-28T08:53:24;99578.44;;;21.30;46.95
68456;BME280;55437;55.046;38.838;2023-04-28T08:55:54;99578.66;;;21.15;47.02
68456;BME280;55437;55.046;38.838;2023-04-28T08:58:25;99573.38;;;20.95;47.42
68456;BME280;55437;55.046;38.838;2023-04-28T09:00:52;99578.72;;;20.82;47.93
68456;BME280;55437;55.046;38.838;2023-04-28T09:03:19;99579.34;;;20.74;48.58
68456;BME280;55437;55.046;38.838;2023-04-28T09:05:45;99579.59;;;20.60;49.84
68456;BME280;55437;55.046;38.838;2023-04-28T09:08:14;99577.78;;;20.38;50.82
68456;BME280;55437;55.046;38.838;2023-04-28T09:10:40;99578.09;;;20.23;51.62
68456;BME280;55437;55.046;38.838;2023-04-28T09:13:06;99576.13;;;20.37;52.12
68456;BME280;55437;55.046;38.838;2023-04-28T09:15:42;99575.75;;;20.53;52.52
68456;BME280;55437;55.046;38.838;2023-04-28T09:18:13;99581.47;;;20.58;52.21
68456;BME280;55437;55.046;38.838;2023-04-28T09:20:40;99576.38;;;20.57;51.94
68456;BME280;55437;55.046;38.838;2023-04-28T09:25:38;99584.78;;;20.49;52.04
68456;BME280;55437;55.046;38.838;2023-04-28T09:28:20;99574.06;;;20.30;52.46
68456;BME280;55437;55.046;38.838;2023-04-28T09:30:48;99573.81;;;20.22;52.86
68456;BME280;55437;55.046;38.838;2023-04-28T09:33:14;99577.47;;;20.19;53.03
68456;BME280;55437;55.046;38.838;2023-04-28T09:35:42;99578.44;;;20.18;53.22
68456;BME280;55437;55.046;38.838;2023-04-28T09:38:10;99581.63;;;20.10;53.50
68456;BME280;55437;55.046;38.838;2023-04-28T09:43:34;99571.19;;;19.99;53.53
68456;BME280;55437;55.046;38.838;2023-04-28T09:46:03;99572.84;;;20.00;53.42
68456;BME280;55437;55.046;38.838;2023-04-28T09:48:35;99583.91;;;20.26;53.33
68456;BME280;55437;55.046;38.838;2023-04-28T09:51:04;99586.44;;;20.72;52.79
68456;BME280;55437;55.046;38.838;2023-04-28T09:53:31;99582.22;;;21.14;51.98
68456;BME280;55437;55.046;38.838;2023-04-28T09:56:16;99590.31;;;21.66;50.89
68456;BME280;55437;55.046;38.838;2023-04-28T09:58:46;99585.91;;;21.87;50.05
68456;BME280;55437;55.046;38.838;2023-04-28T10:01:14;99592.28;;;22.05;49.77
68456;BME280;55437;55.046;38.838;2023-04-28T10:03:41;99584.09;;;21.99;49.36
68456;BME280;55437;55.046;38.838;2023-04-28T10:06:09;99583.94;;;21.79;49.55
68456;BME280;55437;55.046;38.838;2023-04-28T10:08:35;99579.31;;;21.51;49.44
68456;BME280;55437;55.046;38.838;2023-04-28T10:11:00;99588.06;;;21.29;49.73
68456;BME280;55437;55.046;38.838;2023-04-28T10:13:26;99593.28;;;21.07;50.69
68456;BME280;55437;55.046;38.838;2023-04-28T10:15:52;99590.13;;;20.81;50.88
68456;BME280;55437;55.046;38.838;2023-04-28T10:18:23;99592.03;;;20.68;51.22
68456;BME280;55437;55.046;38.838;2023-04-28T10:20:57;99578.97;;;20.57;51.43
68456;BME280;55437;55.046;38.838;2023-04-28T10:23:45;99591.69;;;20.50;51.57
68456;BME280;55437;55.046;38.838;2023-04-28T10:26:13;99597.81;;;20.38;51.88
68456;BME280;55437;55.046;38.838;2023-04-28T10:28:58;99601.34;;;20.26;51.65
68456;BME280;55437;55.046;38.838;2023-04-28T10:31:24;99593.72;;;20.11;52.17
68456;BME280;55437;55.046;38.838;2023-04-28T10:33:50;99606.00;;;19.98;52.46
68456;BME280;55437;55.046;38.838;2023-04-28T10:36:47;99613.84;;;19.74;52.76
68456;BME280;55437;55.046;38.838;2023-04-28T10:39:33;99606.06;;;19.51;53.21
68456;BME280;55437;55.046;38.838;2023-04-28T10:41:59;99621.41;;;19.30;54.08
68456;BME280;55437;55.046;38.838;2023-04-28T10:47:04;99622.66;;;18.75;57.34
68456;BME280;55437;55.046;38.838;2023-04-28T11:00:47;99631.28;;;17.73;61.76
68456;BME280;55437;55.046;38.838;2023-04-28T11:09:02;99626.69;;;17.49;63.34
68456;BME280;55437;55.046;38.838;2023-04-28T11:16:52;99635.47;;;17.61;63.64
68456;BME280;55437;55.046;38.838;2023-04-28T11:19:22;99628.69;;;17.58;64.49
68456;BME280;55437;55.046;38.838;2023-04-28T11:21:59;99627.31;;;17.53;64.97
68456;BME280;55437;55.046;38.838;2023-04-28T11:24:27;99635.31;;;17.50;65.17
68456;BME280;55437;55.046;38.838;2023-04-28T11:26:54;99628.38;;;17.50;65.41
68456;BME280;55437;55.046;38.838;2023-04-28T11:29:34;99635.84;;;17.55;65.76
68456;BME280;55437;55.046;38.838;2023-04-28T11:32:05;99634.06;;;17.55;65.72
68456;BME280;55437;55.046;38.838;2023-04-28T11:34:37;99632.41;;;17.54;65.70
68456;BME280;55437;55.046;38.838;2023-04-28T11:37:03;99631.88;;;17.49;66.20
68456;BME280;55437;55.046;38.838;2023-04-28T11:39:33;99636.25;;;17.49;66.59
68456;BME280;55437;55.046;38.838;2023-04-28T11:42:00;99635.59;;;17.45;66.74
68456;BME280;55437;55.046;38.838;2023-04-28T11:44:30;99629.41;;;17.34;67.33
68456;BME280;55437;55.046;38.838;2023-04-28T11:47:00;99626.84;;;17.19;68.02
68456;BME280;55437;55.046;38.838;2023-04-28T11:49:27;99618.91;;;17.08;68.67
68456;BME280;55437;55.046;38.838;2023-04-28T11:51:55;99618.47;;;17.02;69.06
68456;BME280;55437;55.046;38.838;2023-04-28T11:54:25;99625.09;;;17.06;69.26
68456;BME280;55437;55.046;38.838;2023-04-28T11:56:52;99617.97;;;17.09;69.71
68456;BME280;55437;55.046;38.838;2023-04-28T11:59:25;99609.94;;;17.00;69.93
68456;BME280;55437;55.046;38.838;2023-04-28T12:04:41;99597.25;;;16.95;70.83
68456;BME280;55437;55.046;38.838;2023-04-28T12:07:15;99591.69;;;17.01;70.53
68456;BME280;55437;55.046;38.838;2023-04-28T12:09:47;99595.31;;;16.99;71.09
68456;BME280;55437;55.046;38.838;2023-04-28T12:12:27;99598.91;;;16.96;71.12
68456;BME280;55437;55.046;38.838;2023-04-28T12:15:02;99594.22;;;16.74;70.59
68456;BME280;55437;55.046;38.838;2023-04-28T12:17:40;99584.59;;;16.62;70.72
68456;BME280;55437;55.046;38.838;2023-04-28T12:20:44;99584.59;;;16.76;70.26
68456;BME280;55437;55.046;38.838;2023-04-28T12:23:10;99584.69;;;16.75;70.01
68456;BME280;55437;55.046;38.838;2023-04-28T12:25:45;99581.50;;;16.84;69.92
68456;BME280;55437;55.046;38.838;2023-04-28T12:28:12;99586.50;;;17.01;69.15
68456;BME280;55437;55.046;38.838;2023-04-28T12:30:41;99580.16;;;17.05;68.87
68456;BME280;55437;55.046;38.838;2023-04-28T12:33:28;99579.16;;;17.08;68.63
68456;BME280;55437;55.046;38.838;2023-04-28T12:35:55;99577.16;;;16.99;68.94
68456;BME280;55437;55.046;38.838;2023-04-28T12:38:25;99575.75;;;16.93;69.21
68456;BME280;55437;55.046;38.838;2023-04-28T12:40:53;99567.97;;;16.93;69.29
68456;BME280;55437;55.046;38.838;2023-04-28T12:43:19;99581.69;;;16.95;69.34
68456;BME280;55437;55.046;38.838;2023-04-28T12:45:48;99570.72;;;17.04;68.61
68456;BME280;55437;55.046;38.838;2023-04-28T12:48:17;99574.03;;;17.20;68.27
68456;BME280;55437;55.046;38.838;2023-04-28T12:50:46;99567.31;;;17.31;68.40
68456;BME280;55437;55.046;38.838;2023-04-28T12:53:11;99575.84;;;17.33;68.09
68456;BME280;55437;55.046;38.838;2023-04-28T12:55:40;99577.69;;;17.31;68.39
68456;BME280;55437;55.046;38.838;2023-04-28T12:58:06;99569.03;;;17.44;68.38
68456;BME280;55437;55.046;38.838;2023-04-28T13:00:32;99571.34;;;17.49;68.09
68456;BME280;55437;55.046;38.838;2023-04-28T13:02:58;99569.16;;;17.55;67.93
68456;BME280;55437;55.046;38.838;2023-04-28T13:05:23;99567.41;;;17.56;67.80
68456;BME280;55437;55.046;38.838;2023-04-28T13:07:49;99572.38;;;17.46;67.76
68456;BME280;55437;55.046;38.838;2023-04-28T13:10:16;99566.72;;;17.40;68.07
68456;BME280;55437;55.046;38.838;2023-04-28T13:12:42;99575.34;;;17.40;68.24
68456;BME280;55437;55.046;38.838;2023-04-28T13:15:09;99575.66;;;17.36;68.14
68456;BME280;55437;55.046;38.838;2023-04-28T13:17:39;99573.66;;;17.26;68.24
68456;BME280;55437;55.046;38.838;2023-04-28T13:20:05;99571.16;;;17.25;68.18
68456;BME280;55437;55.046;38.838;2023-04-28T13:22:34;99564.75;;;17.16;68.39
68456;BME280;55437;55.046;38.838;2023-04-28T13:25:00;99575.22;;;17.15;68.58
68456;BME280;55437;55.046;38.838;2023-04-28T13:27:33;99565.16;;;17.10;68.54
68456;BME280;55437;55.046;38.838;2023-04-28T13:30:00;99572.03;;;17.11;68.47
68456;BME280;55437;55.046;38.838;2023-04-28T13:32:30;99574.78;;;17.22;67.94
68456;BME280;55437;55.046;38.838;2023-04-28T13:34:59;99570.50;;;17.21;67.97
68456;BME280;55437;55.046;38.838;2023-04-28T13:37:25;99569.59;;;17.22;67.59
68456;BME280;55437;55.046;38.838;2023-04-28T13:39:50;99574.88;;;17.21;67.51
68456;BME280;55437;55.046;38.838;2023-04-28T13:42:19;99582.75;;;17.19;67.79
68456;BME280;55437;55.046;38.838;2023-04-28T13:44:45;99575.13;;;17.16;68.11
68456;BME280;55437;55.046;38.838;2023-04-28T13:47:13;99570.88;;;17.15;68.34
68456;BME280;55437;55.046;38.838;2023-04-28T13:49:39;99566.84;;;17.11;68.57
68456;BME280;55437;55.046;38.838;2023-04-28T13:52:05;99575.63;;;17.09;68.51
68456;BME280;55437;55.046;38.838;2023-04-28T13:54:33;99579.91;;;17.10;68.40
68456;BME280;55437;55.046;38.838;2023-04-28T13:57:18;99584.22;;;17.23;68.55
68456;BME280;55437;55.046;38.838;2023-04-28T13:59:44;99569.97;;;17.43;68.28
68456;BME280;55437;55.046;38.838;2023-04-28T14:02:30;99580.16;;;17.73;67.34